Allegany Spring, Virginia
Current Conditions -  °F | °C
As of 11:35 AM on Friday 28 Nov 2014 (Local Time) from KBCB Reporting Station
Overcast Overcast  
Wind Chill: 21°   Ceiling: 2700
Heat Index: 28°   Visibility: 10mi
Dew Point: 21°   Wind: 7mph
Humidity: 74%   Direction: 290°WNW
Pressure: 30.3"   Gusts: NA
Location:  37.1336°N, 80.2545°W
Report Text: KBCB 281635Z AUTO 29006KT 10SM OVC027 M02/M06 A3030 RMK AO2
Loading
Personal Weather Stations






























Interactive Weather Map New forecast layout! Learn more

10-Day Weather Forecast

Advertisements
Track Severe Weather on mobile